sensor_id;sensor_type;location;lat;lon;timestamp;P1;durP1;ratioP1;P2;durP2;ratioP2
48613;SDS011;34408;51.426;5.444;2023-07-31T00:00:55;11.57;;;4.90;;
48613;SDS011;34408;51.426;5.444;2023-07-31T00:03:24;18.00;;;6.10;;
48613;SDS011;34408;51.426;5.444;2023-07-31T00:05:52;15.45;;;5.38;;
48613;SDS011;34408;51.426;5.444;2023-07-31T00:08:20;12.77;;;4.60;;
48613;SDS011;34408;51.426;5.444;2023-07-31T00:10:50;12.65;;;5.32;;
48613;SDS011;34408;51.426;5.444;2023-07-31T00:13:18;11.73;;;4.80;;
48613;SDS011;34408;51.426;5.444;2023-07-31T00:15:46;11.23;;;4.18;;
48613;SDS011;34408;51.426;5.444;2023-07-31T00:18:14;10.70;;;4.25;;
48613;SDS011;34408;51.426;5.444;2023-07-31T00:20:43;15.05;;;5.10;;
48613;SDS011;34408;51.426;5.444;2023-07-31T00:23:11;14.20;;;4.50;;
48613;SDS011;34408;51.426;5.444;2023-07-31T00:25:39;11.20;;;4.97;;
48613;SDS011;34408;51.426;5.444;2023-07-31T00:28:07;12.52;;;5.03;;
48613;SDS011;34408;51.426;5.444;2023-07-31T00:30:34;12.80;;;4.47;;
48613;SDS011;34408;51.426;5.444;2023-07-31T00:33:02;12.50;;;4.18;;
48613;SDS011;34408;51.426;5.444;2023-07-31T00:35:30;10.30;;;4.00;;
48613;SDS011;34408;51.426;5.444;2023-07-31T00:37:59;9.23;;;4.75;;
48613;SDS011;34408;51.426;5.444;2023-07-31T00:40:27;12.80;;;4.20;;
48613;SDS011;34408;51.426;5.444;2023-07-31T00:42:55;11.07;;;4.50;;
48613;SDS011;34408;51.426;5.444;2023-07-31T00:45:24;12.48;;;5.15;;
48613;SDS011;34408;51.426;5.444;2023-07-31T00:47:53;17.83;;;5.90;;
48613;SDS011;34408;51.426;5.444;2023-07-31T00:50:22;10.13;;;3.75;;
48613;SDS011;34408;51.426;5.444;2023-07-31T00:52:51;10.25;;;4.15;;
48613;SDS011;34408;51.426;5.444;2023-07-31T00:55:20;11.77;;;4.75;;
48613;SDS011;34408;51.426;5.444;2023-07-31T00:57:49;11.15;;;4.63;;
48613;SDS011;34408;51.426;5.444;2023-07-31T01:00:18;12.40;;;4.13;;
48613;SDS011;34408;51.426;5.444;2023-07-31T01:02:45;13.15;;;3.90;;
48613;SDS011;34408;51.426;5.444;2023-07-31T01:05:14;14.93;;;5.10;;
48613;SDS011;34408;51.426;5.444;2023-07-31T01:07:44;11.75;;;4.30;;
48613;SDS011;34408;51.426;5.444;2023-07-31T01:10:21;12.65;;;3.95;;
48613;SDS011;34408;51.426;5.444;2023-07-31T01:12:53;10.27;;;3.90;;
48613;SDS011;34408;51.426;5.444;2023-07-31T01:15:23;11.48;;;4.75;;
48613;SDS011;34408;51.426;5.444;2023-07-31T01:17:51;13.43;;;4.85;;
48613;SDS011;34408;51.426;5.444;2023-07-31T01:20:21;10.80;;;4.80;;
48613;SDS011;34408;51.426;5.444;2023-07-31T01:25:56;9.57;;;4.07;;
48613;SDS011;34408;51.426;5.444;2023-07-31T01:28:31;8.75;;;4.38;;
48613;SDS011;34408;51.426;5.444;2023-07-31T01:31:05;11.95;;;4.57;;
48613;SDS011;34408;51.426;5.444;2023-07-31T01:33:37;10.73;;;3.97;;
48613;SDS011;34408;51.426;5.444;2023-07-31T01:36:05;10.05;;;4.05;;
48613;SDS011;34408;51.426;5.444;2023-07-31T01:38:34;13.05;;;4.70;;
48613;SDS011;34408;51.426;5.444;2023-07-31T01:41:03;11.23;;;4.55;;
48613;SDS011;34408;51.426;5.444;2023-07-31T01:43:31;13.20;;;4.68;;
48613;SDS011;34408;51.426;5.444;2023-07-31T01:45:59;13.05;;;5.82;;
48613;SDS011;34408;51.426;5.444;2023-07-31T01:48:27;8.98;;;3.47;;
48613;SDS011;34408;51.426;5.444;2023-07-31T01:50:54;10.10;;;4.32;;
48613;SDS011;34408;51.426;5.444;2023-07-31T01:53:22;14.05;;;5.05;;
48613;SDS011;34408;51.426;5.444;2023-07-31T01:55:50;11.05;;;4.03;;
48613;SDS011;34408;51.426;5.444;2023-07-31T01:58:19;10.10;;;4.25;;
48613;SDS011;34408;51.426;5.444;2023-07-31T02:00:47;14.75;;;4.30;;
48613;SDS011;34408;51.426;5.444;2023-07-31T02:03:14;9.85;;;4.63;;
48613;SDS011;34408;51.426;5.444;2023-07-31T02:05:44;12.73;;;4.40;;
48613;SDS011;34408;51.426;5.444;2023-07-31T02:08:12;9.70;;;3.60;;
48613;SDS011;34408;51.426;5.444;2023-07-31T02:10:40;15.80;;;4.28;;
48613;SDS011;34408;51.426;5.444;2023-07-31T02:13:08;9.75;;;4.05;;
48613;SDS011;34408;51.426;5.444;2023-07-31T02:15:37;11.75;;;4.53;;
48613;SDS011;34408;51.426;5.444;2023-07-31T02:18:05;11.52;;;4.32;;
48613;SDS011;34408;51.426;5.444;2023-07-31T02:20:33;8.68;;;3.85;;
48613;SDS011;34408;51.426;5.444;2023-07-31T02:23:01;11.60;;;4.57;;
48613;SDS011;34408;51.426;5.444;2023-07-31T02:25:29;14.63;;;5.15;;
48613;SDS011;34408;51.426;5.444;2023-07-31T02:27:57;15.68;;;5.15;;
48613;SDS011;34408;51.426;5.444;2023-07-31T02:30:25;10.70;;;4.38;;
48613;SDS011;34408;51.426;5.444;2023-07-31T02:32:54;9.45;;;4.22;;
48613;SDS011;34408;51.426;5.444;2023-07-31T02:35:22;10.70;;;4.43;;
48613;SDS011;34408;51.426;5.444;2023-07-31T02:37:50;11.02;;;4.85;;
48613;SDS011;34408;51.426;5.444;2023-07-31T02:40:18;10.98;;;4.35;;
48613;SDS011;34408;51.426;5.444;2023-07-31T02:42:45;8.48;;;4.22;;
48613;SDS011;34408;51.426;5.444;2023-07-31T02:45:13;11.85;;;5.22;;
48613;SDS011;34408;51.426;5.444;2023-07-31T02:47:41;14.68;;;4.50;;
48613;SDS011;34408;51.426;5.444;2023-07-31T02:50:10;9.35;;;4.40;;
48613;SDS011;34408;51.426;5.444;2023-07-31T02:52:38;9.82;;;4.63;;
48613;SDS011;34408;51.426;5.444;2023-07-31T02:55:06;9.90;;;4.47;;
48613;SDS011;34408;51.426;5.444;2023-07-31T02:57:34;11.77;;;4.18;;
48613;SDS011;34408;51.426;5.444;2023-07-31T03:00:02;9.57;;;3.78;;
48613;SDS011;34408;51.426;5.444;2023-07-31T03:02:32;12.05;;;5.05;;
48613;SDS011;34408;51.426;5.444;2023-07-31T03:05:00;11.05;;;4.47;;
48613;SDS011;34408;51.426;5.444;2023-07-31T03:07:29;14.68;;;4.18;;
48613;SDS011;34408;51.426;5.444;2023-07-31T03:09:57;11.50;;;4.50;;
48613;SDS011;34408;51.426;5.444;2023-07-31T03:12:25;12.30;;;4.82;;
48613;SDS011;34408;51.426;5.444;2023-07-31T03:14:52;12.88;;;5.03;;
48613;SDS011;34408;51.426;5.444;2023-07-31T03:17:20;12.50;;;4.63;;
48613;SDS011;34408;51.426;5.444;2023-07-31T03:19:48;12.40;;;4.85;;
48613;SDS011;34408;51.426;5.444;2023-07-31T03:22:16;8.05;;;3.88;;
48613;SDS011;34408;51.426;5.444;2023-07-31T03:24:45;12.05;;;4.72;;
48613;SDS011;34408;51.426;5.444;2023-07-31T03:27:13;8.95;;;4.30;;
48613;SDS011;34408;51.426;5.444;2023-07-31T03:29:40;14.05;;;5.30;;
48613;SDS011;34408;51.426;5.444;2023-07-31T03:32:08;11.13;;;4.28;;
48613;SDS011;34408;51.426;5.444;2023-07-31T03:34:36;10.88;;;4.07;;
48613;SDS011;34408;51.426;5.444;2023-07-31T03:37:04;11.35;;;4.80;;
48613;SDS011;34408;51.426;5.444;2023-07-31T03:39:32;16.00;;;6.13;;
48613;SDS011;34408;51.426;5.444;2023-07-31T03:42:02;9.95;;;4.40;;
48613;SDS011;34408;51.426;5.444;2023-07-31T03:44:30;11.38;;;5.30;;
48613;SDS011;34408;51.426;5.444;2023-07-31T03:46:57;12.63;;;3.83;;
48613;SDS011;34408;51.426;5.444;2023-07-31T03:49:25;12.13;;;4.97;;
48613;SDS011;34408;51.426;5.444;2023-07-31T03:51:53;7.50;;;4.15;;
48613;SDS011;34408;51.426;5.444;2023-07-31T03:54:21;12.73;;;4.28;;
48613;SDS011;34408;51.426;5.444;2023-07-31T03:56:49;12.07;;;4.30;;
48613;SDS011;34408;51.426;5.444;2023-07-31T03:59:18;12.32;;;4.25;;
48613;SDS011;34408;51.426;5.444;2023-07-31T04:01:46;9.70;;;4.38;;
48613;SDS011;34408;51.426;5.444;2023-07-31T04:04:14;11.63;;;4.38;;
48613;SDS011;34408;51.426;5.444;2023-07-31T04:06:41;8.65;;;4.35;;
48613;SDS011;34408;51.426;5.444;2023-07-31T04:09:09;9.57;;;4.40;;
48613;SDS011;34408;51.426;5.444;2023-07-31T04:11:37;7.90;;;3.80;;
48613;SDS011;34408;51.426;5.444;2023-07-31T04:14:05;11.52;;;3.95;;
48613;SDS011;34408;51.426;5.444;2023-07-31T04:16:34;12.15;;;3.70;;
48613;SDS011;34408;51.426;5.444;2023-07-31T04:19:03;9.10;;;4.03;;
48613;SDS011;34408;51.426;5.444;2023-07-31T04:21:31;10.13;;;3.97;;
48613;SDS011;34408;51.426;5.444;2023-07-31T04:23:58;9.07;;;4.10;;
48613;SDS011;34408;51.426;5.444;2023-07-31T04:26:26;11.80;;;4.15;;
48613;SDS011;34408;51.426;5.444;2023-07-31T04:28:54;11.98;;;4.35;;
48613;SDS011;34408;51.426;5.444;2023-07-31T04:31:22;11.23;;;3.80;;
48613;SDS011;34408;51.426;5.444;2023-07-31T04:33:51;13.40;;;4.80;;
48613;SDS011;34408;51.426;5.444;2023-07-31T04:36:19;12.10;;;4.63;;
48613;SDS011;34408;51.426;5.444;2023-07-31T04:38:46;9.27;;;3.72;;
48613;SDS011;34408;51.426;5.444;2023-07-31T04:41:14;10.52;;;4.35;;
48613;SDS011;34408;51.426;5.444;2023-07-31T04:43:42;9.18;;;3.47;;
48613;SDS011;34408;51.426;5.444;2023-07-31T04:46:10;9.40;;;3.78;;
48613;SDS011;34408;51.426;5.444;2023-07-31T04:48:38;9.93;;;4.45;;
48613;SDS011;34408;51.426;5.444;2023-07-31T04:51:07;12.35;;;4.43;;
48613;SDS011;34408;51.426;5.444;2023-07-31T04:53:36;12.30;;;4.30;;
48613;SDS011;34408;51.426;5.444;2023-07-31T04:56:04;7.65;;;3.80;;
48613;SDS011;34408;51.426;5.444;2023-07-31T04:58:32;11.77;;;4.00;;
48613;SDS011;34408;51.426;5.444;2023-07-31T05:00:59;10.40;;;4.15;;
48613;SDS011;34408;51.426;5.444;2023-07-31T05:03:27;8.13;;;3.90;;
48613;SDS011;34408;51.426;5.444;2023-07-31T05:05:55;8.73;;;3.85;;
48613;SDS011;34408;51.426;5.444;2023-07-31T05:08:24;8.38;;;2.95;;
48613;SDS011;34408;51.426;5.444;2023-07-31T05:10:52;6.38;;;3.63;;
48613;SDS011;34408;51.426;5.444;2023-07-31T05:13:20;6.30;;;3.20;;
48613;SDS011;34408;51.426;5.444;2023-07-31T05:15:48;8.48;;;3.28;;
48613;SDS011;34408;51.426;5.444;2023-07-31T05:18:16;9.60;;;4.20;;
48613;SDS011;34408;51.426;5.444;2023-07-31T05:20:44;10.80;;;3.78;;
48613;SDS011;34408;51.426;5.444;2023-07-31T05:23:12;10.98;;;4.07;;
48613;SDS011;34408;51.426;5.444;2023-07-31T05:25:41;6.32;;;3.42;;
48613;SDS011;34408;51.426;5.444;2023-07-31T05:28:09;8.10;;;3.95;;
48613;SDS011;34408;51.426;5.444;2023-07-31T05:30:37;7.88;;;3.90;;
48613;SDS011;34408;51.426;5.444;2023-07-31T05:33:04;7.13;;;3.55;;
48613;SDS011;34408;51.426;5.444;2023-07-31T05:35:32;9.80;;;3.53;;
48613;SDS011;34408;51.426;5.444;2023-07-31T05:38:00;6.25;;;3.00;;
48613;SDS011;34408;51.426;5.444;2023-07-31T05:40:28;8.02;;;3.22;;
48613;SDS011;34408;51.426;5.444;2023-07-31T05:42:57;12.27;;;3.40;;
48613;SDS011;34408;51.426;5.444;2023-07-31T05:45:25;7.10;;;3.13;;
48613;SDS011;34408;51.426;5.444;2023-07-31T05:47:52;7.13;;;3.03;;
48613;SDS011;34408;51.426;5.444;2023-07-31T05:50:20;8.43;;;3.47;;
48613;SDS011;34408;51.426;5.444;2023-07-31T05:52:48;7.20;;;3.20;;
48613;SDS011;34408;51.426;5.444;2023-07-31T05:55:16;7.20;;;3.40;;
48613;SDS011;34408;51.426;5.444;2023-07-31T05:57:44;6.88;;;3.08;;
48613;SDS011;34408;51.426;5.444;2023-07-31T06:00:14;6.82;;;3.17;;
48613;SDS011;34408;51.426;5.444;2023-07-31T06:02:42;6.15;;;3.10;;
48613;SDS011;34408;51.426;5.444;2023-07-31T06:05:10;5.57;;;2.70;;
48613;SDS011;34408;51.426;5.444;2023-07-31T06:07:38;6.35;;;3.00;;
48613;SDS011;34408;51.426;5.444;2023-07-31T06:10:06;7.80;;;3.08;;
48613;SDS011;34408;51.426;5.444;2023-07-31T06:12:34;6.13;;;2.88;;
48613;SDS011;34408;51.426;5.444;2023-07-31T06:15:03;4.88;;;2.65;;
48613;SDS011;34408;51.426;5.444;2023-07-31T06:17:33;4.20;;;2.42;;
48613;SDS011;34408;51.426;5.444;2023-07-31T06:20:01;3.67;;;2.20;;
48613;SDS011;34408;51.426;5.444;2023-07-31T06:22:31;8.00;;;2.95;;
48613;SDS011;34408;51.426;5.444;2023-07-31T06:24:59;9.00;;;2.78;;
48613;SDS011;34408;51.426;5.444;2023-07-31T06:27:26;5.72;;;2.47;;
48613;SDS011;34408;51.426;5.444;2023-07-31T06:29:54;4.13;;;2.53;;
48613;SDS011;34408;51.426;5.444;2023-07-31T06:32:22;5.53;;;2.75;;
48613;SDS011;34408;51.426;5.444;2023-07-31T06:34:51;7.40;;;2.85;;
48613;SDS011;34408;51.426;5.444;2023-07-31T06:37:20;4.93;;;2.90;;
48613;SDS011;34408;51.426;5.444;2023-07-31T06:39:48;3.88;;;2.53;;
48613;SDS011;34408;51.426;5.444;2023-07-31T06:42:15;6.18;;;3.33;;
48613;SDS011;34408;51.426;5.444;2023-07-31T06:44:43;3.90;;;2.60;;
48613;SDS011;34408;51.426;5.444;2023-07-31T06:47:11;6.93;;;2.47;;
48613;SDS011;34408;51.426;5.444;2023-07-31T06:49:39;5.10;;;2.80;;
48613;SDS011;34408;51.426;5.444;2023-07-31T06:52:08;4.53;;;2.42;;
48613;SDS011;34408;51.426;5.444;2023-07-31T06:54:37;3.70;;;2.20;;
48613;SDS011;34408;51.426;5.444;2023-07-31T06:57:05;3.35;;;2.38;;
48613;SDS011;34408;51.426;5.444;2023-07-31T06:59:34;4.40;;;2.15;;
48613;SDS011;34408;51.426;5.444;2023-07-31T07:02:02;5.65;;;2.60;;
48613;SDS011;34408;51.426;5.444;2023-07-31T07:04:32;4.28;;;2.30;;
48613;SDS011;34408;51.426;5.444;2023-07-31T07:07:00;4.93;;;2.40;;
48613;SDS011;34408;51.426;5.444;2023-07-31T07:09:29;4.28;;;2.33;;
48613;SDS011;34408;51.426;5.444;2023-07-31T07:11:57;4.53;;;2.25;;
48613;SDS011;34408;51.426;5.444;2023-07-31T07:14:24;4.60;;;2.45;;
48613;SDS011;34408;51.426;5.444;2023-07-31T07:16:52;6.30;;;2.20;;
48613;SDS011;34408;51.426;5.444;2023-07-31T07:19:20;2.95;;;1.90;;
48613;SDS011;34408;51.426;5.444;2023-07-31T07:21:48;3.13;;;2.20;;
48613;SDS011;34408;51.426;5.444;2023-07-31T07:24:16;4.20;;;2.30;;
48613;SDS011;34408;51.426;5.444;2023-07-31T07:26:45;3.88;;;2.10;;
48613;SDS011;34408;51.426;5.444;2023-07-31T07:29:13;3.85;;;2.00;;
48613;SDS011;34408;51.426;5.444;2023-07-31T07:31:40;3.15;;;2.13;;
48613;SDS011;34408;51.426;5.444;2023-07-31T07:34:08;4.82;;;2.40;;
48613;SDS011;34408;51.426;5.444;2023-07-31T07:36:36;4.18;;;2.90;;
48613;SDS011;34408;51.426;5.444;2023-07-31T07:39:05;4.47;;;2.22;;
48613;SDS011;34408;51.426;5.444;2023-07-31T07:41:33;4.85;;;2.42;;
48613;SDS011;34408;51.426;5.444;2023-07-31T07:44:02;4.13;;;1.98;;
48613;SDS011;34408;51.426;5.444;2023-07-31T07:46:30;3.88;;;2.20;;
48613;SDS011;34408;51.426;5.444;2023-07-31T07:48:58;3.90;;;1.98;;
48613;SDS011;34408;51.426;5.444;2023-07-31T07:51:26;3.55;;;2.25;;
48613;SDS011;34408;51.426;5.444;2023-07-31T07:53:56;4.60;;;2.10;;
48613;SDS011;34408;51.426;5.444;2023-07-31T07:56:25;6.43;;;2.20;;
48613;SDS011;34408;51.426;5.444;2023-07-31T07:58:53;5.95;;;2.40;;
48613;SDS011;34408;51.426;5.444;2023-07-31T08:01:23;4.85;;;2.40;;
48613;SDS011;34408;51.426;5.444;2023-07-31T08:03:50;7.22;;;3.17;;
48613;SDS011;34408;51.426;5.444;2023-07-31T08:06:18;5.03;;;2.83;;
48613;SDS011;34408;51.426;5.444;2023-07-31T08:08:46;8.30;;;2.88;;
48613;SDS011;34408;51.426;5.444;2023-07-31T08:11:14;6.70;;;2.78;;
48613;SDS011;34408;51.426;5.444;2023-07-31T08:13:42;5.97;;;2.92;;
48613;SDS011;34408;51.426;5.444;2023-07-31T08:16:09;5.60;;;2.28;;
48613;SDS011;34408;51.426;5.444;2023-07-31T08:18:39;8.20;;;2.78;;
48613;SDS011;34408;51.426;5.444;2023-07-31T08:21:08;5.25;;;2.72;;
48613;SDS011;34408;51.426;5.444;2023-07-31T08:23:36;7.25;;;3.05;;
48613;SDS011;34408;51.426;5.444;2023-07-31T08:26:04;5.78;;;3.28;;
48613;SDS011;34408;51.426;5.444;2023-07-31T08:28:32;5.95;;;2.90;;
48613;SDS011;34408;51.426;5.444;2023-07-31T08:31:01;4.88;;;2.40;;
48613;SDS011;34408;51.426;5.444;2023-07-31T08:33:29;6.93;;;2.70;;
48613;SDS011;34408;51.426;5.444;2023-07-31T08:35:58;6.38;;;3.03;;
48613;SDS011;34408;51.426;5.444;2023-07-31T08:38:27;5.00;;;3.05;;
48613;SDS011;34408;51.426;5.444;2023-07-31T08:40:56;6.07;;;3.28;;
48613;SDS011;34408;51.426;5.444;2023-07-31T08:43:25;5.43;;;3.17;;
48613;SDS011;34408;51.426;5.444;2023-07-31T08:45:54;6.53;;;2.97;;
48613;SDS011;34408;51.426;5.444;2023-07-31T08:48:22;7.47;;;3.08;;
48613;SDS011;34408;51.426;5.444;2023-07-31T08:50:51;5.22;;;2.70;;
48613;SDS011;34408;51.426;5.444;2023-07-31T08:53:20;7.20;;;3.05;;
48613;SDS011;34408;51.426;5.444;2023-07-31T08:55:49;7.43;;;3.42;;
48613;SDS011;34408;51.426;5.444;2023-07-31T08:58:17;6.55;;;3.38;;
48613;SDS011;34408;51.426;5.444;2023-07-31T09:00:45;6.63;;;2.53;;
48613;SDS011;34408;51.426;5.444;2023-07-31T09:03:17;5.97;;;3.08;;
48613;SDS011;34408;51.426;5.444;2023-07-31T09:05:46;5.50;;;2.40;;
48613;SDS011;34408;51.426;5.444;2023-07-31T09:08:15;6.57;;;3.03;;
48613;SDS011;34408;51.426;5.444;2023-07-31T09:10:47;9.35;;;3.60;;
48613;SDS011;34408;51.426;5.444;2023-07-31T09:13:16;8.27;;;3.55;;
48613;SDS011;34408;51.426;5.444;2023-07-31T09:15:44;11.95;;;3.17;;
48613;SDS011;34408;51.426;5.444;2023-07-31T09:18:13;6.97;;;2.60;;
48613;SDS011;34408;51.426;5.444;2023-07-31T09:20:44;5.63;;;2.95;;
48613;SDS011;34408;51.426;5.444;2023-07-31T09:23:13;6.78;;;3.10;;
48613;SDS011;34408;51.426;5.444;2023-07-31T09:25:43;6.97;;;2.97;;
48613;SDS011;34408;51.426;5.444;2023-07-31T09:28:13;5.53;;;2.50;;
48613;SDS011;34408;51.426;5.444;2023-07-31T09:30:44;7.57;;;3.15;;
48613;SDS011;34408;51.426;5.444;2023-07-31T09:33:14;4.95;;;2.88;;
48613;SDS011;34408;51.426;5.444;2023-07-31T09:35:43;7.38;;;2.70;;
48613;SDS011;34408;51.426;5.444;2023-07-31T09:38:12;4.82;;;2.67;;
48613;SDS011;34408;51.426;5.444;2023-07-31T09:40:41;6.90;;;3.20;;
48613;SDS011;34408;51.426;5.444;2023-07-31T09:43:11;4.18;;;2.40;;
48613;SDS011;34408;51.426;5.444;2023-07-31T09:45:41;7.85;;;3.15;;
48613;SDS011;34408;51.426;5.444;2023-07-31T09:48:10;6.28;;;2.92;;
48613;SDS011;34408;51.426;5.444;2023-07-31T09:50:39;4.90;;;2.72;;
48613;SDS011;34408;51.426;5.444;2023-07-31T09:53:10;6.07;;;2.70;;
48613;SDS011;34408;51.426;5.444;2023-07-31T09:55:38;5.70;;;2.92;;
48613;SDS011;34408;51.426;5.444;2023-07-31T09:58:07;6.45;;;3.05;;
48613;SDS011;34408;51.426;5.444;2023-07-31T10:00:37;7.97;;;2.85;;
48613;SDS011;34408;51.426;5.444;2023-07-31T10:03:06;5.68;;;2.80;;
48613;SDS011;34408;51.426;5.444;2023-07-31T10:05:35;4.97;;;2.30;;
48613;SDS011;34408;51.426;5.444;2023-07-31T10:08:04;4.07;;;2.40;;
48613;SDS011;34408;51.426;5.444;2023-07-31T10:10:34;5.25;;;2.55;;
48613;SDS011;34408;51.426;5.444;2023-07-31T10:13:03;5.63;;;2.75;;
48613;SDS011;34408;51.426;5.444;2023-07-31T10:15:32;4.13;;;2.22;;
48613;SDS011;34408;51.426;5.444;2023-07-31T10:18:03;5.65;;;2.70;;
48613;SDS011;34408;51.426;5.444;2023-07-31T10:20:33;4.05;;;2.35;;
48613;SDS011;34408;51.426;5.444;2023-07-31T10:23:03;7.05;;;2.60;;
48613;SDS011;34408;51.426;5.444;2023-07-31T10:25:31;5.60;;;2.70;;
48613;SDS011;34408;51.426;5.444;2023-07-31T10:28:00;8.10;;;3.00;;
48613;SDS011;34408;51.426;5.444;2023-07-31T10:30:28;9.77;;;3.28;;
48613;SDS011;34408;51.426;5.444;2023-07-31T10:33:00;6.57;;;2.75;;
48613;SDS011;34408;51.426;5.444;2023-07-31T10:35:30;4.97;;;2.72;;
48613;SDS011;34408;51.426;5.444;2023-07-31T10:38:07;6.60;;;3.05;;
48613;SDS011;34408;51.426;5.444;2023-07-31T10:40:37;5.32;;;2.58;;
48613;SDS011;34408;51.426;5.444;2023-07-31T10:43:05;3.97;;;2.30;;
48613;SDS011;34408;51.426;5.444;2023-07-31T10:45:35;5.10;;;2.20;;
48613;SDS011;34408;51.426;5.444;2023-07-31T10:48:04;6.75;;;2.60;;
48613;SDS011;34408;51.426;5.444;2023-07-31T10:50:36;6.97;;;3.38;;
48613;SDS011;34408;51.426;5.444;2023-07-31T10:53:05;3.17;;;2.13;;
48613;SDS011;34408;51.426;5.444;2023-07-31T10:55:35;8.50;;;2.50;;
48613;SDS011;34408;51.426;5.444;2023-07-31T10:58:08;5.30;;;2.50;;
48613;SDS011;34408;51.426;5.444;2023-07-31T11:00:37;4.97;;;2.75;;
48613;SDS011;34408;51.426;5.444;2023-07-31T11:03:07;5.95;;;2.75;;
48613;SDS011;34408;51.426;5.444;2023-07-31T11:05:51;5.30;;;2.78;;
48613;SDS011;34408;51.426;5.444;2023-07-31T11:08:21;5.30;;;2.40;;
48613;SDS011;34408;51.426;5.444;2023-07-31T11:10:51;6.25;;;2.20;;
48613;SDS011;34408;51.426;5.444;2023-07-31T11:13:34;5.05;;;2.72;;
48613;SDS011;34408;51.426;5.444;2023-07-31T11:16:07;6.22;;;2.60;;
48613;SDS011;34408;51.426;5.444;2023-07-31T11:18:35;5.60;;;2.67;;
48613;SDS011;34408;51.426;5.444;2023-07-31T11:21:07;5.93;;;3.10;;
48613;SDS011;34408;51.426;5.444;2023-07-31T11:23:36;5.20;;;2.72;;
48613;SDS011;34408;51.426;5.444;2023-07-31T11:26:05;6.43;;;2.60;;
48613;SDS011;34408;51.426;5.444;2023-07-31T11:28:34;5.20;;;2.83;;
48613;SDS011;34408;51.426;5.444;2023-07-31T11:31:02;4.32;;;2.38;;
48613;SDS011;34408;51.426;5.444;2023-07-31T11:33:30;6.38;;;2.70;;
48613;SDS011;34408;51.426;5.444;2023-07-31T11:35:58;7.95;;;2.97;;
48613;SDS011;34408;51.426;5.444;2023-07-31T11:38:28;6.82;;;2.97;;
48613;SDS011;34408;51.426;5.444;2023-07-31T11:40:58;4.22;;;2.22;;
48613;SDS011;34408;51.426;5.444;2023-07-31T11:43:28;6.65;;;2.42;;
48613;SDS011;34408;51.426;5.444;2023-07-31T11:45:57;4.68;;;2.40;;
48613;SDS011;34408;51.426;5.444;2023-07-31T11:48:26;4.75;;;2.72;;
48613;SDS011;34408;51.426;5.444;2023-07-31T11:50:57;6.10;;;2.10;;
48613;SDS011;34408;51.426;5.444;2023-07-31T11:53:28;3.80;;;2.20;;
48613;SDS011;34408;51.426;5.444;2023-07-31T11:55:59;5.85;;;2.72;;
48613;SDS011;34408;51.426;5.444;2023-07-31T11:58:28;5.57;;;3.03;;
48613;SDS011;34408;51.426;5.444;2023-07-31T12:00:58;4.03;;;2.63;;
48613;SDS011;34408;51.426;5.444;2023-07-31T12:03:26;4.97;;;2.30;;
48613;SDS011;34408;51.426;5.444;2023-07-31T12:05:54;5.72;;;2.25;;
48613;SDS011;34408;51.426;5.444;2023-07-31T12:08:23;5.88;;;2.88;;
48613;SDS011;34408;51.426;5.444;2023-07-31T12:10:53;4.47;;;2.60;;
48613;SDS011;34408;51.426;5.444;2023-07-31T12:13:22;5.07;;;2.40;;
48613;SDS011;34408;51.426;5.444;2023-07-31T12:15:53;8.13;;;2.50;;
48613;SDS011;34408;51.426;5.444;2023-07-31T12:18:23;9.05;;;3.53;;
48613;SDS011;34408;51.426;5.444;2023-07-31T12:20:53;4.53;;;2.67;;
48613;SDS011;34408;51.426;5.444;2023-07-31T12:23:23;6.47;;;2.60;;
48613;SDS011;34408;51.426;5.444;2023-07-31T12:26:02;4.88;;;2.65;;
48613;SDS011;34408;51.426;5.444;2023-07-31T12:28:34;5.28;;;2.20;;
48613;SDS011;34408;51.426;5.444;2023-07-31T12:31:03;5.22;;;2.58;;
48613;SDS011;34408;51.426;5.444;2023-07-31T12:33:32;7.75;;;2.88;;
48613;SDS011;34408;51.426;5.444;2023-07-31T12:36:02;5.35;;;2.47;;
48613;SDS011;34408;51.426;5.444;2023-07-31T12:38:31;5.50;;;2.67;;
48613;SDS011;34408;51.426;5.444;2023-07-31T12:40:59;6.80;;;3.08;;
48613;SDS011;34408;51.426;5.444;2023-07-31T12:43:28;5.88;;;2.60;;
48613;SDS011;34408;51.426;5.444;2023-07-31T12:45:56;8.50;;;3.00;;
48613;SDS011;34408;51.426;5.444;2023-07-31T12:48:24;6.85;;;3.45;;
48613;SDS011;34408;51.426;5.444;2023-07-31T12:50:52;4.35;;;2.83;;
48613;SDS011;34408;51.426;5.444;2023-07-31T12:53:20;10.93;;;2.88;;
48613;SDS011;34408;51.426;5.444;2023-07-31T12:55:48;4.07;;;2.25;;
48613;SDS011;34408;51.426;5.444;2023-07-31T12:58:16;6.07;;;2.95;;
48613;SDS011;34408;51.426;5.444;2023-07-31T13:00:45;5.68;;;2.85;;
48613;SDS011;34408;51.426;5.444;2023-07-31T13:03:13;6.38;;;3.17;;
48613;SDS011;34408;51.426;5.444;2023-07-31T13:05:41;5.10;;;2.85;;
48613;SDS011;34408;51.426;5.444;2023-07-31T13:08:09;7.78;;;3.13;;
48613;SDS011;34408;51.426;5.444;2023-07-31T13:10:38;7.72;;;3.08;;
48613;SDS011;34408;51.426;5.444;2023-07-31T13:13:06;6.15;;;2.92;;
48613;SDS011;34408;51.426;5.444;2023-07-31T13:15:33;12.02;;;3.22;;
48613;SDS011;34408;51.426;5.444;2023-07-31T13:18:03;7.82;;;3.35;;
48613;SDS011;34408;51.426;5.444;2023-07-31T13:20:31;8.75;;;3.10;;
48613;SDS011;34408;51.426;5.444;2023-07-31T13:22:59;6.20;;;2.97;;
48613;SDS011;34408;51.426;5.444;2023-07-31T13:25:26;5.70;;;2.80;;
48613;SDS011;34408;51.426;5.444;2023-07-31T13:27:54;7.22;;;3.25;;
48613;SDS011;34408;51.426;5.444;2023-07-31T13:30:25;6.03;;;3.00;;
48613;SDS011;34408;51.426;5.444;2023-07-31T13:32:53;5.28;;;2.97;;
48613;SDS011;34408;51.426;5.444;2023-07-31T13:35:22;6.72;;;3.72;;
48613;SDS011;34408;51.426;5.444;2023-07-31T13:37:50;5.95;;;3.72;;
48613;SDS011;34408;51.426;5.444;2023-07-31T13:40:18;4.97;;;3.15;;
48613;SDS011;34408;51.426;5.444;2023-07-31T13:42:46;6.53;;;3.58;;
48613;SDS011;34408;51.426;5.444;2023-07-31T13:45:14;8.48;;;3.67;;
48613;SDS011;34408;51.426;5.444;2023-07-31T13:47:42;11.43;;;3.88;;
48613;SDS011;34408;51.426;5.444;2023-07-31T13:50:10;9.07;;;3.65;;
48613;SDS011;34408;51.426;5.444;2023-07-31T13:52:39;9.10;;;3.80;;
48613;SDS011;34408;51.426;5.444;2023-07-31T13:55:07;5.93;;;3.50;;
48613;SDS011;34408;51.426;5.444;2023-07-31T13:57:35;7.70;;;3.00;;
48613;SDS011;34408;51.426;5.444;2023-07-31T14:00:03;7.38;;;4.53;;
48613;SDS011;34408;51.426;5.444;2023-07-31T14:02:32;9.52;;;3.50;;
48613;SDS011;34408;51.426;5.444;2023-07-31T14:05:00;9.85;;;3.58;;
48613;SDS011;34408;51.426;5.444;2023-07-31T14:07:28;6.97;;;4.15;;
48613;SDS011;34408;51.426;5.444;2023-07-31T14:09:57;8.13;;;3.47;;
48613;SDS011;34408;51.426;5.444;2023-07-31T14:12:25;6.75;;;3.22;;
48613;SDS011;34408;51.426;5.444;2023-07-31T14:15:08;7.10;;;3.75;;
48613;SDS011;34408;51.426;5.444;2023-07-31T14:17:36;7.22;;;3.88;;
48613;SDS011;34408;51.426;5.444;2023-07-31T14:20:05;8.05;;;4.30;;
48613;SDS011;34408;51.426;5.444;2023-07-31T14:22:34;6.82;;;3.75;;
48613;SDS011;34408;51.426;5.444;2023-07-31T14:25:03;7.32;;;3.65;;
48613;SDS011;34408;51.426;5.444;2023-07-31T14:27:32;6.88;;;4.03;;
48613;SDS011;34408;51.426;5.444;2023-07-31T14:30:00;6.95;;;4.13;;
48613;SDS011;34408;51.426;5.444;2023-07-31T14:32:28;10.65;;;4.22;;
48613;SDS011;34408;51.426;5.444;2023-07-31T14:34:56;10.90;;;4.53;;
48613;SDS011;34408;51.426;5.444;2023-07-31T14:37:25;9.98;;;4.15;;
48613;SDS011;34408;51.426;5.444;2023-07-31T14:39:53;6.70;;;3.72;;
48613;SDS011;34408;51.426;5.444;2023-07-31T14:42:23;11.05;;;3.97;;
48613;SDS011;34408;51.426;5.444;2023-07-31T14:44:51;6.30;;;3.10;;
48613;SDS011;34408;51.426;5.444;2023-07-31T14:47:19;7.38;;;3.75;;
48613;SDS011;34408;51.426;5.444;2023-07-31T14:49:47;6.43;;;3.40;;
48613;SDS011;34408;51.426;5.444;2023-07-31T14:52:15;9.20;;;3.70;;
48613;SDS011;34408;51.426;5.444;2023-07-31T14:54:43;7.10;;;3.67;;